KWDG/WDG METAR and TAF weather

Enter ICAO airport designator
Station Type Date Time Source
KWDG METAR 2020/06/06 14:46 UTC NOAA

KWDG 061446Z 21008KT 10SM SKC 32/20 A2996


Station Type Date Time Source
KWDG Decoded METAR 2020/06/06 14:46 UTC NOAA

Enid, Enid Woodring Regional Airport, OK, United States (KWDG) 36-22-45N 097-47-28W
Jun 06, 2020 - 10:46 AM EDT / 2020.06.06 1446 UTC
Wind: from the SSW (210 degrees) at 9 MPH (8 KT):0
Visibility: 10 mile(s):0
Sky conditions: clear
Temperature: 89 F (32 C)
Dew Point: 68 F (20 C)
Relative Humidity: 49%
Pressure (altimeter): 29.96 in. Hg (1014 hPa)
ob: KWDG 061446Z 21008KT 10SM SKC 32/20 A2996
cycle: 15

Station Type Date Time Source
KWDG TAF UTC NOAA

Error!

Example: see airport list